Time;durP1;ratioP1;P1;durP2;ratioP2;P2;SDS_P1;SDS_P2;PMS_P1;PMS_P2;Temp;Humidity;BMP_temperature;BMP_pressure;BME280_temperature;BME280_humidity;BME280_pressure;Samples;Min_cycle;Max_cycle;Signal;HPM_P1;HPM_P2
2021/07/28 00:00:13;;;;;;;7.30;3.03;;;17.80;99.90;;;;;;5013594;28;20085;-75
2021/07/28 00:02:40;;;;;;;6.82;2.90;;;17.80;99.90;;;;;;5013020;28;20094;-75
2021/07/28 00:05:06;;;;;;;6.95;2.78;;;17.70;99.90;;;;;;5013659;28;20022;-75
2021/07/28 00:07:31;;;;;;;7.82;2.83;;;17.80;99.90;;;;;;5014408;28;20034;-75
2021/07/28 00:09:57;;;;;;;8.88;3.70;;;17.70;99.90;;;;;;5012342;28;20022;-76
2021/07/28 00:12:23;;;;;;;7.30;2.70;;;17.80;99.90;;;;;;5012851;28;20021;-75
2021/07/28 00:14:49;;;;;;;7.15;2.90;;;17.70;99.90;;;;;;5013965;28;20032;-75
2021/07/28 00:17:15;;;;;;;6.72;2.80;;;17.70;99.90;;;;;;5012165;28;20251;-74
2021/07/28 00:25:09;;;;;;;7.40;3.17;;;17.70;99.90;;;;;;5013150;28;20041;-75
2021/07/28 00:27:35;;;;;;;9.05;3.70;;;17.70;99.90;;;;;;5013887;28;20108;-75
2021/07/28 00:30:02;;;;;;;11.77;3.35;;;17.70;99.90;;;;;;5011997;28;20025;-75
2021/07/28 00:32:28;;;;;;;8.45;3.20;;;17.60;99.90;;;;;;5012388;28;20045;-75
2021/07/28 00:34:53;;;;;;;9.48;3.50;;;17.70;99.90;;;;;;5012476;28;20454;-75
2021/07/28 00:37:19;;;;;;;8.98;3.17;;;17.70;99.90;;;;;;5013122;28;20021;-75
2021/07/28 00:39:44;;;;;;;7.18;3.03;;;17.70;99.90;;;;;;5012062;28;20022;-75
2021/07/28 00:42:10;;;;;;;7.32;3.13;;;17.70;99.90;;;;;;5013412;28;20032;-75
2021/07/28 00:44:36;;;;;;;9.10;3.00;;;17.60;99.90;;;;;;5012181;28;20026;-75
2021/07/28 00:47:02;;;;;;;8.43;3.17;;;17.60;99.90;;;;;;5011618;28;20025;-75
2021/07/28 00:49:27;;;;;;;7.32;3.13;;;17.60;99.90;;;;;;5013318;28;20025;-75
2021/07/28 00:51:55;;;;;;;10.35;3.35;;;17.60;99.90;;;;;;5013047;28;20464;-75
2021/07/28 00:54:23;;;;;;;5.95;2.78;;;17.60;99.90;;;;;;5012789;28;20026;-75
2021/07/28 00:56:48;;;;;;;7.47;3.17;;;17.60;99.90;;;;;;5013081;28;20164;-75
2021/07/28 00:59:15;;;;;;;8.23;2.90;;;17.60;99.90;;;;;;5011180;28;20359;-74
2021/07/28 01:01:42;;;;;;;7.45;2.63;;;17.60;99.90;;;;;;5013632;28;20080;-74
2021/07/28 01:04:08;;;;;;;7.10;2.88;;;17.50;99.90;;;;;;5011327;28;20018;-74
2021/07/28 01:06:35;;;;;;;8.48;3.45;;;17.60;99.90;;;;;;5013310;28;20463;-75
2021/07/28 01:09:01;;;;;;;7.30;3.20;;;17.50;99.90;;;;;;5012634;28;20020;-75
2021/07/28 01:11:27;;;;;;;9.27;3.60;;;17.60;99.90;;;;;;5011619;28;20537;-76
2021/07/28 01:13:55;;;;;;;7.45;3.35;;;17.60;99.90;;;;;;5011761;28;20095;-74
2021/07/28 01:16:23;;;;;;;7.68;2.97;;;17.50;99.90;;;;;;5012453;28;20052;-75
2021/07/28 01:18:50;;;;;;;7.25;3.22;;;17.50;99.90;;;;;;5013044;28;20022;-75
2021/07/28 01:21:17;;;;;;;8.52;3.05;;;17.50;99.90;;;;;;5011052;28;20347;-75
2021/07/28 01:23:43;;;;;;;7.32;3.03;;;17.50;99.90;;;;;;5011722;28;20049;-77
2021/07/28 01:26:09;;;;;;;9.05;2.83;;;17.50;99.90;;;;;;5010956;28;20059;-77
2021/07/28 01:28:36;;;;;;;8.13;2.90;;;17.50;99.90;;;;;;5011673;28;20357;-77
2021/07/28 01:31:15;;;;;;;4.85;2.30;;;17.50;99.90;;;;;;5011001;28;20457;-77
2021/07/28 01:33:43;;;;;;;8.32;3.40;;;17.50;99.90;;;;;;5011447;28;20028;-74
2021/07/28 01:36:20;;;;;;;7.30;3.03;;;17.50;99.90;;;;;;5012187;28;20037;-74
2021/07/28 01:38:46;;;;;;;7.85;3.08;;;17.50;99.90;;;;;;5011577;28;20014;-77
2021/07/28 01:41:13;;;;;;;9.60;3.10;;;17.50;99.90;;;;;;5012072;28;20477;-77
2021/07/28 01:43:40;;;;;;;9.15;3.65;;;17.50;99.90;;;;;;5011293;28;20465;-77
2021/07/28 01:46:06;;;;;;;8.23;3.40;;;17.50;99.90;;;;;;5011673;28;20101;-77
2021/07/28 01:48:34;;;;;;;9.13;3.83;;;17.50;99.90;;;;;;5012607;28;20046;-77
2021/07/28 01:51:00;;;;;;;9.13;3.55;;;17.40;99.90;;;;;;5011252;28;20022;-74
2021/07/28 01:53:27;;;;;;;9.50;2.92;;;17.40;99.90;;;;;;5011532;28;20378;-77
2021/07/28 01:55:54;;;;;;;10.18;3.83;;;17.40;99.90;;;;;;5011199;28;20022;-75
2021/07/28 01:58:20;;;;;;;8.10;3.40;;;17.40;99.90;;;;;;5010592;28;20405;-75
2021/07/28 02:00:46;;;;;;;6.47;3.13;;;17.40;99.90;;;;;;5011682;28;20042;-75
2021/07/28 02:03:12;;;;;;;6.43;3.13;;;17.40;99.90;;;;;;5011089;28;20025;-75
2021/07/28 02:05:40;;;;;;;7.70;3.28;;;17.40;99.90;;;;;;5012250;28;20080;-75
2021/07/28 02:08:11;;;;;;;6.78;2.72;;;17.40;99.90;;;;;;5010417;28;20017;-75
2021/07/28 02:10:39;;;;;;;6.07;3.00;;;17.40;99.90;;;;;;5012603;28;20071;-74
2021/07/28 02:13:06;;;;;;;7.47;2.97;;;17.40;99.90;;;;;;5011600;28;20030;-75
2021/07/28 02:15:33;;;;;;;8.93;3.28;;;17.40;99.90;;;;;;5010895;28;20018;-75
2021/07/28 02:17:59;;;;;;;8.45;3.63;;;17.40;99.90;;;;;;5012118;28;20026;-75
2021/07/28 02:20:27;;;;;;;8.95;3.03;;;17.40;99.90;;;;;;5010376;28;20072;-75
2021/07/28 02:22:54;;;;;;;9.77;2.90;;;17.40;99.90;;;;;;5012284;28;20054;-75
2021/07/28 02:25:19;;;;;;;8.07;3.10;;;17.50;99.90;;;;;;5011578;28;20040;-75
2021/07/28 02:27:46;;;;;;;6.20;2.70;;;17.50;99.90;;;;;;5010900;28;20418;-75
2021/07/28 02:30:13;;;;;;;5.75;2.67;;;17.50;99.90;;;;;;5010229;28;20018;-75
2021/07/28 02:32:40;;;;;;;10.70;3.28;;;17.50;99.90;;;;;;5011941;28;20030;-75
2021/07/28 02:35:07;;;;;;;7.07;2.75;;;17.50;99.90;;;;;;5010168;28;20022;-76
2021/07/28 02:37:34;;;;;;;7.35;3.17;;;17.50;99.90;;;;;;5012046;28;20072;-75
2021/07/28 02:40:00;;;;;;;8.15;3.65;;;17.50;99.90;;;;;;5011885;28;20026;-75
2021/07/28 02:42:26;;;;;;;13.20;4.22;;;17.50;99.90;;;;;;5011630;28;20101;-75
2021/07/28 02:44:51;;;;;;;8.10;3.15;;;17.40;99.90;;;;;;5012277;28;20060;-75
2021/07/28 02:47:17;;;;;;;6.88;3.25;;;17.40;99.90;;;;;;5011448;28;20018;-75
2021/07/28 02:49:43;;;;;;;6.97;3.33;;;17.40;99.90;;;;;;5010661;28;20021;-74
2021/07/28 02:52:08;;;;;;;7.78;3.15;;;17.40;99.90;;;;;;5009951;28;20029;-75
2021/07/28 02:54:34;;;;;;;7.78;3.00;;;17.40;99.90;;;;;;5010703;28;20018;-74
2021/07/28 02:57:00;;;;;;;6.32;2.35;;;17.40;99.90;;;;;;5011834;28;20394;-74
2021/07/28 02:59:26;;;;;;;6.40;2.75;;;17.40;99.90;;;;;;5009900;28;20667;-77
2021/07/28 03:01:54;;;;;;;7.20;2.72;;;17.40;99.90;;;;;;5010459;28;20154;-77
2021/07/28 03:04:20;;;;;;;7.05;2.75;;;17.40;99.90;;;;;;5009798;28;20481;-78
2021/07/28 03:06:46;;;;;;;7.80;3.13;;;17.50;99.90;;;;;;5010629;28;20075;-77
2021/07/28 03:09:12;;;;;;;7.45;3.20;;;17.50;99.90;;;;;;5009825;28;20013;-76
2021/07/28 03:11:38;;;;;;;8.38;3.05;;;17.50;99.90;;;;;;5011758;28;20065;-74
2021/07/28 03:14:04;;;;;;;10.65;3.75;;;17.60;99.90;;;;;;5013259;28;20061;-74
2021/07/28 03:16:30;;;;;;;10.90;3.90;;;17.60;99.90;;;;;;5014625;28;20107;-74
2021/07/28 03:18:55;;;;;;;9.43;3.33;;;17.60;99.90;;;;;;5015259;28;20018;-76
2021/07/28 03:21:24;;;;;;;9.52;2.97;;;17.60;99.90;;;;;;5013360;28;20014;-76
2021/07/28 03:23:50;;;;;;;6.13;2.47;;;17.60;99.90;;;;;;5015166;28;20030;-75
2021/07/28 03:26:16;;;;;;;7.45;2.63;;;17.60;99.90;;;;;;5014353;28;20133;-76
2021/07/28 03:28:42;;;;;;;5.85;2.67;;;17.60;99.90;;;;;;5013794;28;20025;-75
2021/07/28 03:31:08;;;;;;;5.82;2.42;;;17.60;99.90;;;;;;5015056;28;20347;-75
2021/07/28 03:33:34;;;;;;;5.65;2.28;;;17.60;99.90;;;;;;5014696;28;20083;-75
2021/07/28 03:36:00;;;;;;;7.28;2.63;;;17.60;99.90;;;;;;5014829;28;20022;-75
2021/07/28 03:38:25;;;;;;;6.72;2.20;;;17.60;99.90;;;;;;5014328;28;20037;-76
2021/07/28 03:40:51;;;;;;;9.65;3.00;;;17.60;99.90;;;;;;5015127;28;20053;-75
2021/07/28 03:43:17;;;;;;;11.30;3.85;;;17.60;99.90;;;;;;5013785;28;20025;-75
2021/07/28 03:45:42;;;;;;;9.55;3.95;;;17.60;99.90;;;;;;5015019;28;20022;-75
2021/07/28 03:48:08;;;;;;;9.20;3.85;;;17.60;99.90;;;;;;5014718;28;20022;-75
2021/07/28 03:50:34;;;;;;;11.95;3.53;;;17.60;99.90;;;;;;5012884;28;20431;-75
2021/07/28 03:53:00;;;;;;;8.05;3.22;;;17.60;99.90;;;;;;5013335;28;20050;-75
2021/07/28 03:55:26;;;;;;;7.32;3.22;;;17.60;99.90;;;;;;5013963;28;20090;-75
2021/07/28 03:57:52;;;;;;;9.43;2.85;;;17.60;99.90;;;;;;5012813;28;20083;-75
2021/07/28 04:00:18;;;;;;;8.32;3.00;;;17.60;99.90;;;;;;5013824;28;20053;-75
2021/07/28 04:02:44;;;;;;;10.63;4.03;;;17.60;99.90;;;;;;5014433;28;20022;-75
2021/07/28 04:05:10;;;;;;;11.95;4.07;;;17.60;99.90;;;;;;5012803;28;20020;-75
2021/07/28 04:07:36;;;;;;;11.15;3.40;;;17.60;99.90;;;;;;5012992;28;20026;-75
2021/07/28 04:10:02;;;;;;;7.57;3.05;;;17.60;99.90;;;;;;5014229;28;20036;-75
2021/07/28 04:12:28;;;;;;;7.88;2.88;;;17.60;99.90;;;;;;5011541;28;20029;-75
2021/07/28 04:14:53;;;;;;;11.18;3.45;;;17.60;99.90;;;;;;5012933;28;20021;-75
2021/07/28 04:17:19;;;;;;;11.93;4.30;;;17.60;99.90;;;;;;5013755;28;20030;-74
2021/07/28 04:19:49;;;;;;;13.00;4.28;;;17.60;99.90;;;;;;5017894;28;20076;-74
2021/07/28 04:22:18;;;;;;;11.05;3.83;;;17.60;99.90;;;;;;5024372;28;20021;-74
2021/07/28 04:24:46;;;;;;;10.90;4.38;;;17.60;99.90;;;;;;5032382;28;20049;-74
2021/07/28 04:27:12;;;;;;;8.05;3.17;;;17.70;99.90;;;;;;5033986;28;20029;-75
2021/07/28 04:29:38;;;;;;;11.38;4.55;;;17.70;99.90;;;;;;5033468;28;20021;-75
2021/07/28 04:32:04;;;;;;;11.63;4.90;;;17.70;99.90;;;;;;5033563;28;20468;-74
2021/07/28 04:34:29;;;;;;;11.98;4.72;;;17.60;99.90;;;;;;5031662;28;20014;-74
2021/07/28 04:36:55;;;;;;;15.88;5.10;;;17.70;99.90;;;;;;5032207;28;20029;-75
2021/07/28 04:39:21;;;;;;;10.75;4.78;;;17.70;99.90;;;;;;5032935;28;20021;-74
2021/07/28 04:41:46;;;;;;;9.00;4.40;;;17.70;99.90;;;;;;5033171;28;20047;-74
2021/07/28 04:44:12;;;;;;;16.15;4.70;;;17.70;99.90;;;;;;5030048;28;20461;-82
2021/07/28 04:46:37;;;;;;;15.75;6.18;;;17.70;99.90;;;;;;5029138;28;20507;-82
2021/07/28 04:49:03;;;;;;;14.45;5.32;;;17.70;99.90;;;;;;5046456;28;20116;-80
2021/07/28 04:51:29;;;;;;;14.98;6.00;;;17.70;99.90;;;;;;5030557;28;20063;-82
2021/07/28 04:53:54;;;;;;;16.48;6.88;;;17.70;99.90;;;;;;5031427;28;20036;-81
2021/07/28 04:56:20;;;;;;;16.30;6.13;;;17.70;99.90;;;;;;5045796;28;20036;-80
2021/07/28 04:58:46;;;;;;;17.17;6.05;;;17.70;99.90;;;;;;5030689;28;20072;-79
2021/07/28 05:01:12;;;;;;;18.30;6.97;;;17.70;99.90;;;;;;5046902;28;20048;-84
2021/07/28 05:03:38;;;;;;;14.77;5.32;;;17.70;99.90;;;;;;5044675;28;20022;-79
2021/07/28 05:06:03;;;;;;;18.10;6.20;;;17.70;99.90;;;;;;5039075;28;20025;-84
2021/07/28 05:08:29;;;;;;;15.80;5.97;;;17.70;99.90;;;;;;5038546;28;20029;-81
2021/07/28 05:10:55;;;;;;;16.33;6.63;;;17.70;99.90;;;;;;5029731;28;20017;-82
2021/07/28 05:13:20;;;;;;;17.88;6.97;;;17.70;99.90;;;;;;5030265;28;20029;-83
2021/07/28 05:15:50;;;;;;;16.02;5.70;;;17.70;99.90;;;;;;5031042;28;20045;-82
2021/07/28 05:18:16;;;;;;;18.25;6.68;;;17.70;99.90;;;;;;5030701;28;20020;-82
2021/07/28 05:20:41;;;;;;;20.77;7.28;;;17.80;99.90;;;;;;5046056;28;20021;-82
2021/07/28 05:23:07;;;;;;;16.85;5.93;;;17.80;99.90;;;;;;5030452;28;20029;-82
2021/07/28 05:25:33;;;;;;;13.18;6.45;;;17.80;99.90;;;;;;5045407;28;20029;-82
2021/07/28 05:27:59;;;;;;;17.02;6.97;;;17.80;99.90;;;;;;5045885;28;20067;-82
2021/07/28 05:30:24;;;;;;;19.73;6.35;;;17.80;99.90;;;;;;5029257;28;20137;-82
2021/07/28 05:32:50;;;;;;;21.77;7.82;;;17.80;99.90;;;;;;5030288;28;20521;-83
2021/07/28 05:35:15;;;;;;;17.98;7.30;;;17.90;99.90;;;;;;5033032;28;20353;-83
2021/07/28 05:37:41;;;;;;;19.42;7.88;;;17.80;99.90;;;;;;5031050;28;20096;-83
2021/07/28 05:40:07;;;;;;;21.77;8.05;;;17.90;99.90;;;;;;5032313;28;20045;-83
2021/07/28 05:42:33;;;;;;;20.95;8.02;;;17.90;99.90;;;;;;5030562;28;20394;-83
2021/07/28 05:45:00;;;;;;;22.00;7.43;;;17.90;99.90;;;;;;5032462;28;20033;-83
2021/07/28 05:47:26;;;;;;;19.23;7.47;;;17.90;99.90;;;;;;5031988;28;20047;-83
2021/07/28 05:50:14;;;;;;;20.60;8.65;;;17.90;99.90;;;;;;5032507;28;20019;-83
2021/07/28 05:52:40;;;;;;;18.63;7.13;;;17.90;99.80;;;;;;5031672;28;20118;-84
2021/07/28 05:55:07;;;;;;;21.58;8.77;;;17.90;99.90;;;;;;5032982;28;20014;-84
2021/07/28 05:57:32;;;;;;;21.65;8.35;;;18.00;99.80;;;;;;5030681;28;20400;-84
2021/07/28 05:59:58;;;;;;;23.27;8.32;;;17.90;99.80;;;;;;5032267;28;20024;-83
2021/07/28 06:02:23;;;;;;;18.27;8.30;;;18.00;99.70;;;;;;5032105;28;20045;-82
2021/07/28 06:04:49;;;;;;;19.10;7.78;;;17.90;99.80;;;;;;5030724;28;20084;-83
2021/07/28 06:07:15;;;;;;;19.13;6.95;;;18.00;99.90;;;;;;5032513;28;20029;-83
2021/07/28 06:09:41;;;;;;;22.83;7.97;;;18.00;99.90;;;;;;5032516;28;20033;-84
2021/07/28 06:12:07;;;;;;;25.27;8.85;;;18.00;99.90;;;;;;5036379;28;20017;-85
2021/07/28 06:14:33;;;;;;;19.48;8.10;;;18.00;99.80;;;;;;5030783;28;20049;-84
2021/07/28 06:16:59;;;;;;;23.95;8.43;;;18.10;99.90;;;;;;5032605;28;20075;-85
2021/07/28 06:19:24;;;;;;;24.73;9.20;;;18.10;99.80;;;;;;5036405;28;20022;-84
2021/07/28 06:21:50;;;;;;;23.33;8.82;;;18.10;99.80;;;;;;5042394;28;20045;-86
2021/07/28 06:24:16;;;;;;;20.33;7.07;;;18.10;99.70;;;;;;5034818;28;20025;-85
2021/07/28 06:26:41;;;;;;;24.90;8.98;;;18.20;99.90;;;;;;5031787;28;20386;-85
2021/07/28 06:29:07;;;;;;;25.85;8.73;;;18.20;99.90;;;;;;5031909;28;20021;-86
2021/07/28 06:31:32;;;;;;;26.33;8.57;;;18.30;99.80;;;;;;5032432;28;20029;-85
2021/07/28 06:33:58;;;;;;;21.48;7.88;;;18.30;99.80;;;;;;5033313;28;20450;-84
2021/07/28 06:36:24;;;;;;;27.40;10.25;;;18.40;99.80;;;;;;5030209;28;20021;-83
2021/07/28 06:38:49;;;;;;;21.20;8.55;;;18.40;99.70;;;;;;5032110;28;20052;-84
2021/07/28 06:41:15;;;;;;;26.92;10.38;;;18.40;99.80;;;;;;5031802;28;20018;-85
2021/07/28 06:43:41;;;;;;;20.42;8.35;;;18.40;99.70;;;;;;5030033;28;20017;-83
2021/07/28 06:46:06;;;;;;;25.65;9.90;;;18.50;99.70;;;;;;5031934;28;20465;-84
2021/07/28 06:48:32;;;;;;;21.58;9.73;;;18.50;99.60;;;;;;5033748;28;20113;-84
2021/07/28 06:50:58;;;;;;;26.95;9.27;;;18.50;99.50;;;;;;5034458;28;20400;-84
2021/07/28 06:53:23;;;;;;;29.65;10.18;;;18.60;99.60;;;;;;5033571;28;20037;-80
2021/07/28 06:55:52;;;;;;;24.63;10.00;;;18.60;99.50;;;;;;5034400;28;20021;-84
2021/07/28 06:58:19;;;;;;;28.83;10.85;;;18.60;99.40;;;;;;5033862;28;20026;-83
2021/07/28 07:00:45;;;;;;;26.60;9.82;;;18.70;99.40;;;;;;5034447;28;20064;-82
2021/07/28 07:03:11;;;;;;;26.40;10.05;;;18.70;99.40;;;;;;5035503;28;20025;-84
2021/07/28 07:05:37;;;;;;;25.23;10.15;;;18.70;99.30;;;;;;5034807;28;20026;-83
2021/07/28 07:08:03;;;;;;;22.15;8.93;;;18.70;99.40;;;;;;5034189;28;20029;-84
2021/07/28 07:10:28;;;;;;;24.00;8.77;;;18.70;99.50;;;;;;5034486;28;20018;-83
2021/07/28 07:12:54;;;;;;;15.82;6.82;;;18.70;99.50;;;;;;5035251;28;20112;-84
2021/07/28 07:15:20;;;;;;;19.75;7.47;;;18.80;99.60;;;;;;5033713;28;20018;-83
2021/07/28 07:17:45;;;;;;;21.05;8.07;;;18.90;99.50;;;;;;5034626;28;20044;-84
2021/07/28 07:20:11;;;;;;;22.85;9.05;;;19.00;99.30;;;;;;5033653;28;20059;-84
2021/07/28 07:22:37;;;;;;;24.08;9.30;;;19.00;99.20;;;;;;5034432;28;20097;-83
2021/07/28 07:25:04;;;;;;;23.33;9.45;;;19.00;99.00;;;;;;5035326;28;20049;-84
2021/07/28 07:27:30;;;;;;;22.17;8.20;;;19.00;99.00;;;;;;5034593;28;20101;-84
2021/07/28 07:29:56;;;;;;;18.77;8.45;;;19.00;99.10;;;;;;5034801;28;20406;-83
2021/07/28 07:32:29;;;;;;;22.63;7.80;;;19.00;99.10;;;;;;5034737;28;20538;-84
2021/07/28 07:34:56;;;;;;;18.30;7.10;;;19.00;99.20;;;;;;5033708;28;20052;-84
2021/07/28 07:37:21;;;;;;;23.08;8.75;;;19.00;99.20;;;;;;5033649;28;20388;-83
2021/07/28 07:39:47;;;;;;;27.58;10.63;;;18.90;99.10;;;;;;5032898;28;20449;-83
2021/07/28 07:42:13;;;;;;;18.95;8.40;;;18.90;98.50;;;;;;5034657;28;20109;-84
2021/07/28 07:44:38;;;;;;;16.50;7.95;;;18.80;98.90;;;;;;5035304;28;20056;-84
2021/07/28 07:47:04;;;;;;;22.13;8.88;;;18.70;99.00;;;;;;5034831;28;20501;-84
2021/07/28 07:49:30;;;;;;;18.38;7.97;;;18.70;98.90;;;;;;5033925;28;20021;-84
2021/07/28 07:51:55;;;;;;;14.80;7.00;;;18.70;98.90;;;;;;5034465;28;20138;-84
2021/07/28 07:54:21;;;;;;;16.98;6.95;;;18.80;99.00;;;;;;5034119;28;20361;-84
2021/07/28 07:56:46;;;;;;;18.25;7.45;;;18.80;99.00;;;;;;5034211;28;20834;-84
2021/07/28 07:59:12;;;;;;;16.65;7.43;;;18.90;98.70;;;;;;5032501;28;20413;-84
2021/07/28 08:01:39;;;;;;;17.80;7.55;;;18.90;98.50;;;;;;5033954;28;20528;-84
2021/07/28 08:04:05;;;;;;;16.05;7.15;;;18.90;98.30;;;;;;5034994;28;20022;-85
2021/07/28 08:06:30;;;;;;;17.60;6.88;;;18.80;98.30;;;;;;5034078;28;20113;-84
2021/07/28 08:08:56;;;;;;;15.55;6.57;;;18.90;98.00;;;;;;5034469;28;20052;-84
2021/07/28 08:11:21;;;;;;;13.68;6.45;;;19.00;97.90;;;;;;5035782;28;20104;-84
2021/07/28 08:13:47;;;;;;;12.80;6.80;;;19.10;98.00;;;;;;5032963;28;20413;-84
2021/07/28 08:16:20;;;;;;;15.52;5.70;;;19.20;97.10;;;;;;5033068;28;20442;-84
2021/07/28 08:18:50;;;;;;;19.38;6.30;;;19.20;96.90;;;;;;5032593;28;20013;-84
2021/07/28 08:21:17;;;;;;;12.48;6.40;;;19.20;97.10;;;;;;5034212;28;20026;-84
2021/07/28 08:23:45;;;;;;;15.80;5.75;;;19.10;97.10;;;;;;5033860;28;20108;-84
2021/07/28 08:26:13;;;;;;;12.68;5.78;;;19.10;97.10;;;;;;5034210;28;20141;-83
2021/07/28 08:28:39;;;;;;;11.40;5.50;;;19.20;97.20;;;;;;5032380;28;20477;-84
2021/07/28 08:31:05;;;;;;;13.70;6.10;;;19.30;97.30;;;;;;5033920;28;20113;-83
2021/07/28 08:33:30;;;;;;;12.35;5.95;;;19.30;96.80;;;;;;5032117;28;20168;-80
2021/07/28 08:35:57;;;;;;;13.95;4.97;;;19.30;97.00;;;;;;5033973;28;20013;-84
2021/07/28 08:38:24;;;;;;;12.73;5.50;;;19.20;97.20;;;;;;5033899;28;20032;-85
2021/07/28 08:40:56;;;;;;;10.00;5.15;;;19.30;96.60;;;;;;5032983;28;20441;-85
2021/07/28 08:43:30;;;;;;;12.48;5.85;;;19.20;96.70;;;;;;5033058;28;20418;-85
2021/07/28 08:46:02;;;;;;;9.90;4.43;;;19.20;96.50;;;;;;5037306;28;20017;-85
2021/07/28 08:48:31;;;;;;;11.18;4.80;;;19.20;97.00;;;;;;5049025;28;20080;-85
2021/07/28 08:50:58;;;;;;;9.88;5.05;;;19.20;97.10;;;;;;5045659;28;20033;-85
2021/07/28 08:53:24;;;;;;;12.30;5.28;;;19.20;97.30;;;;;;5035608;28;20377;-84
2021/07/28 08:55:52;;;;;;;8.23;3.95;;;19.20;97.00;;;;;;5031807;28;20018;-85
2021/07/28 08:58:20;;;;;;;10.65;5.28;;;19.20;97.50;;;;;;5033614;28;20101;-85
2021/07/28 09:00:47;;;;;;;13.13;6.05;;;19.20;96.80;;;;;;5031617;28;20043;-84
2021/07/28 09:03:13;;;;;;;11.00;5.97;;;19.20;96.00;;;;;;5032090;28;20053;-85
2021/07/28 09:05:44;;;;;;;8.98;5.32;;;19.40;95.90;;;;;;5032703;28;20120;-85
2021/07/28 09:08:25;;;;;;;;;;;19.50;95.00;;;;;;5032625;28;20025;-85
2021/07/28 09:10:55;;;;;;;9.18;5.22;;;19.60;94.40;;;;;;5032678;28;19924;-85
2021/07/28 09:13:34;;;;;;;10.07;4.35;;;19.60;94.80;;;;;;5033458;28;20029;-85
2021/07/28 09:16:02;;;;;;;12.43;4.50;;;19.70;95.40;;;;;;5033679;28;20288;-85
2021/07/28 09:18:36;;;;;;;6.78;4.15;;;19.60;94.40;;;;;;5032294;28;20022;-85
2021/07/28 09:21:05;;;;;;;8.82;4.28;;;19.60;95.00;;;;;;5033506;28;20024;-85
2021/07/28 09:23:39;;;;;;;8.30;4.35;;;19.60;94.10;;;;;;5033591;28;20030;-85
2021/07/28 09:26:39;;;;;;;9.68;4.53;;;19.60;94.40;;;;;;5032121;28;20087;-85
2021/07/28 09:29:07;;;;;;;7.57;4.65;;;19.60;94.60;;;;;;5033403;28;20024;-86
2021/07/28 09:31:38;;;;;;;8.27;4.78;;;19.60;94.20;;;;;;5033313;28;20028;-85
2021/07/28 09:36:46;;;;;;;9.93;4.72;;;19.70;94.50;;;;;;5032622;28;20369;-85
2021/07/28 09:39:31;;;;;;;10.07;5.13;;;19.70;93.70;;;;;;5031626;28;20445;-85
2021/07/28 09:42:07;;;;;;;6.45;4.13;;;19.80;93.00;;;;;;5031985;28;20051;-84
2021/07/28 09:44:35;;;;;;;7.07;4.40;;;19.70;93.50;;;;;;5031545;28;20021;-84
2021/07/28 09:47:19;;;;;;;8.85;4.35;;;19.70;93.70;;;;;;5032654;28;20114;-84
2021/07/28 09:49:51;;;;;;;9.32;3.60;;;19.60;93.80;;;;;;5032212;28;20024;-84
2021/07/28 09:52:34;;;;;;;7.18;4.20;;;19.50;94.30;;;;;;5033023;28;20025;-86
2021/07/28 09:55:21;;;;;;;6.90;3.90;;;19.50;93.90;;;;;;5032062;28;20056;-86
2021/07/28 09:57:49;;;;;;;7.63;3.92;;;19.60;92.90;;;;;;5031116;28;20215;-86
2021/07/28 10:00:16;;;;;;;7.20;3.40;;;19.70;93.20;;;;;;5031671;28;20028;-86
2021/07/28 10:02:44;;;;;;;9.48;3.97;;;19.90;93.50;;;;;;5034362;28;20106;-85
2021/07/28 10:05:10;;;;;;;7.55;3.70;;;20.00;92.90;;;;;;5032533;28;20033;-85
2021/07/28 10:07:37;;;;;;;8.00;4.18;;;20.00;93.00;;;;;;5034659;28;20020;-80
2021/07/28 10:10:05;;;;;;;6.68;3.80;;;20.10;92.20;;;;;;5031452;28;20132;-86
2021/07/28 10:12:35;;;;;;;7.05;4.35;;;20.10;92.60;;;;;;5032582;28;20029;-85
2021/07/28 10:15:02;;;;;;;5.60;3.38;;;20.10;92.10;;;;;;5031880;28;20020;-85
2021/07/28 10:17:29;;;;;;;9.30;4.70;;;20.20;92.50;;;;;;5032498;28;20025;-86
2021/07/28 10:19:56;;;;;;;8.60;3.97;;;20.40;91.00;;;;;;5031831;28;20021;-86
2021/07/28 10:22:22;;;;;;;5.93;3.63;;;20.50;91.30;;;;;;5033302;28;20025;-85
2021/07/28 10:24:48;;;;;;;7.80;3.95;;;20.60;91.60;;;;;;5034803;28;20068;-85
2021/07/28 10:27:15;;;;;;;6.57;3.80;;;20.70;91.30;;;;;;5036118;28;20017;-85
2021/07/28 10:29:42;;;;;;;7.53;4.10;;;20.80;91.00;;;;;;5034586;28;20017;-84
2021/07/28 10:32:08;;;;;;;5.05;3.20;;;20.70;90.50;;;;;;5036326;28;20364;-85
2021/07/28 10:34:35;;;;;;;8.13;4.20;;;20.70;90.50;;;;;;5034839;28;20112;-85
2021/07/28 10:37:02;;;;;;;6.15;3.55;;;20.60;90.20;;;;;;5034062;28;20080;-85
2021/07/28 10:39:40;;;;;;;8.45;3.78;;;20.50;89.40;;;;;;5035973;28;20116;-83
2021/07/28 10:42:39;;;;;;;8.02;4.10;;;20.50;90.40;;;;;;5034321;28;20014;-85
2021/07/28 10:45:09;;;;;;;5.28;3.50;;;20.50;90.00;;;;;;5035566;28;20025;-84
2021/07/28 10:47:39;;;;;;;8.35;3.72;;;20.60;89.50;;;;;;5035750;28;20020;-85
2021/07/28 10:50:29;;;;;;;6.18;3.33;;;20.70;90.00;;;;;;5034508;28;20013;-85
2021/07/28 10:53:02;;;;;;;6.57;3.70;;;20.90;89.60;;;;;;5034805;28;20476;-85
2021/07/28 10:55:29;;;;;;;5.72;3.28;;;20.90;88.50;;;;;;5034690;28;20369;-84
2021/07/28 10:58:07;;;;;;;6.03;3.20;;;20.80;89.40;;;;;;5033871;28;20014;-84
2021/07/28 11:00:38;;;;;;;5.05;3.42;;;20.70;88.90;;;;;;5034498;28;20025;-83
2021/07/28 11:03:07;;;;;;;4.53;3.00;;;20.50;89.10;;;;;;5033525;28;20136;-84
2021/07/28 11:05:35;;;;;;;4.43;3.20;;;20.50;89.00;;;;;;5035522;28;20032;-85
2021/07/28 11:08:05;;;;;;;5.63;3.28;;;20.40;89.50;;;;;;5035019;28;20033;-83
2021/07/28 11:10:36;;;;;;;5.00;2.95;;;20.50;90.00;;;;;;5034132;28;20029;-84
2021/07/28 11:13:08;;;;;;;6.13;3.80;;;20.70;89.80;;;;;;5033584;28;20109;-85
2021/07/28 11:15:35;;;;;;;8.93;3.10;;;20.90;89.80;;;;;;5034096;28;20022;-85
2021/07/28 11:18:02;;;;;;;6.20;3.30;;;20.80;88.60;;;;;;5034747;28;20405;-84
2021/07/28 11:20:32;;;;;;;8.55;3.55;;;20.80;88.90;;;;;;5035081;28;20078;-84
2021/07/28 11:23:37;;;;;;;5.87;2.80;;;20.90;88.30;;;;;;5033530;28;20396;-84
2021/07/28 11:26:15;;;;;;;5.18;2.53;;;21.10;87.90;;;;;;5032989;28;20284;-84
2021/07/28 11:28:43;;;;;;;6.15;2.53;;;21.30;86.00;;;;;;5033853;28;20108;-85
2021/07/28 11:31:09;;;;;;;5.13;2.45;;;21.40;86.50;;;;;;5035139;28;20018;-86
2021/07/28 11:33:36;;;;;;;4.15;2.50;;;21.40;85.80;;;;;;5033109;28;20025;-84
2021/07/28 11:36:03;;;;;;;3.85;2.38;;;21.40;86.30;;;;;;5032210;28;20021;-85
2021/07/28 11:38:39;;;;;;;6.10;2.83;;;21.30;85.70;;;;;;5034267;28;20021;-84
2021/07/28 11:41:11;;;;;;;3.47;2.60;;;21.20;85.40;;;;;;5035152;28;20026;-84
2021/07/28 11:43:43;;;;;;;3.80;2.53;;;21.20;84.30;;;;;;5034904;28;20030;-84
2021/07/28 11:46:12;;;;;;;3.42;2.47;;;21.10;84.40;;;;;;5035218;28;20022;-84
2021/07/28 11:49:06;;;;;;;4.38;2.35;;;21.00;83.80;;;;;;5034792;28;20335;-84
2021/07/28 11:51:37;;;;;;;5.00;2.30;;;21.10;83.30;;;;;;5033481;28;20381;-85
2021/07/28 11:54:06;;;;;;;4.30;1.85;;;21.20;82.70;;;;;;5032730;28;20021;-85
2021/07/28 11:56:32;;;;;;;6.32;2.42;;;21.30;83.80;;;;;;5033339;28;20365;-84
2021/07/28 11:58:57;;;;;;;4.15;2.25;;;21.40;84.20;;;;;;5034096;28;20033;-85
2021/07/28 12:01:32;;;;;;;4.57;2.33;;;21.50;82.80;;;;;;5034081;28;20017;-84
2021/07/28 12:04:08;;;;;;;4.65;2.45;;;21.40;82.90;;;;;;5034455;28;20045;-84
2021/07/28 12:06:39;;;;;;;4.53;1.70;;;21.40;81.00;;;;;;5034809;28;20029;-84
2021/07/28 12:09:23;;;;;;;4.20;2.22;;;21.40;81.50;;;;;;5034257;28;20040;-84
2021/07/28 12:11:56;;;;;;;4.85;2.13;;;21.40;79.50;;;;;;5033157;28;20017;-86
2021/07/28 12:14:23;;;;;;;3.05;1.80;;;21.50;79.50;;;;;;5034561;28;20032;-85
2021/07/28 12:16:49;;;;;;;3.58;2.17;;;21.60;79.30;;;;;;5033438;28;20021;-84
2021/07/28 12:19:23;;;;;;;5.20;2.30;;;21.60;79.90;;;;;;5037636;28;20026;-84
2021/07/28 12:21:57;;;;;;;4.32;2.30;;;21.60;80.00;;;;;;5033216;28;20366;-83
2021/07/28 12:24:44;;;;;;;5.65;2.30;;;21.60;80.60;;;;;;5033949;28;20028;-83
2021/07/28 12:27:25;;;;;;;4.63;2.38;;;21.70;80.50;;;;;;5032035;28;20436;-84
2021/07/28 12:30:05;;;;;;;4.68;2.10;;;21.60;80.50;;;;;;5031950;28;20025;-83
2021/07/28 12:32:43;;;;;;;4.20;2.10;;;21.50;81.00;;;;;;5033388;28;20041;-85
2021/07/28 12:35:15;;;;;;;3.38;2.17;;;21.60;80.10;;;;;;5033155;28;20022;-84
2021/07/28 12:37:41;;;;;;;5.78;2.78;;;21.70;79.40;;;;;;5033864;28;20464;-84
2021/07/28 12:40:08;;;;;;;5.45;2.22;;;21.70;78.90;;;;;;5031591;28;20521;-83
2021/07/28 12:42:34;;;;;;;3.95;2.10;;;21.70;78.00;;;;;;5033498;28;20036;-84
2021/07/28 12:45:00;;;;;;;2.97;1.95;;;21.60;78.70;;;;;;5032402;28;20026;-83
2021/07/28 12:47:26;;;;;;;3.15;1.75;;;21.60;78.60;;;;;;5032989;28;20381;-83
2021/07/28 12:49:52;;;;;;;5.25;2.03;;;21.50;79.20;;;;;;5032463;28;20119;-83
2021/07/28 12:52:18;;;;;;;7.47;2.05;;;21.40;79.00;;;;;;5032272;28;20037;-84
2021/07/28 12:54:44;;;;;;;3.28;1.83;;;21.30;79.30;;;;;;5032156;28;20441;-83